Time;durP1;ratioP1;P1;durP2;ratioP2;P2;SDS_P1;SDS_P2;PMS_P1;PMS_P2;Temp;Humidity;BMP_temperature;BMP_pressure;BME280_temperature;BME280_humidity;BME280_pressure;Samples;Min_cycle;Max_cycle;Signal;HPM_P1;HPM_P2
2022/10/06 00:02:15;;;;;;;15.57;2.58;;;18.00;99.90;;;;;;4994592;28;20486;-66
2022/10/06 00:04:41;;;;;;;20.73;3.40;;;18.00;99.90;;;;;;4978264;28;20058;-66
2022/10/06 00:07:07;;;;;;;16.58;3.20;;;18.10;99.90;;;;;;4995627;28;20108;-66
2022/10/06 00:09:32;;;;;;;20.42;3.17;;;18.10;99.90;;;;;;4996013;28;20092;-66
2022/10/06 00:11:58;;;;;;;15.95;2.78;;;18.00;99.90;;;;;;4995389;28;20496;-66
2022/10/06 00:14:24;;;;;;;16.60;3.10;;;18.10;99.90;;;;;;4995916;28;20488;-66
2022/10/06 00:16:50;;;;;;;17.60;2.70;;;18.00;99.90;;;;;;4994638;28;20038;-66
2022/10/06 00:19:16;;;;;;;18.70;3.17;;;18.00;99.90;;;;;;4995908;28;20376;-66
2022/10/06 00:21:41;;;;;;;23.45;2.97;;;18.00;99.90;;;;;;4994725;28;20038;-66
2022/10/06 00:24:07;;;;;;;15.52;2.90;;;17.90;99.90;;;;;;4978449;28;20050;-66
2022/10/06 00:26:33;;;;;;;12.85;2.50;;;17.90;99.90;;;;;;4993984;28;20381;-66
2022/10/06 00:28:59;;;;;;;13.07;2.80;;;18.30;99.90;;;;;;4994864;28;20117;-66
2022/10/06 00:31:25;;;;;;;17.75;3.10;;;17.90;99.90;;;;;;4994765;28;20038;-66
2022/10/06 00:33:50;;;;;;;18.88;2.83;;;17.90;99.90;;;;;;4978069;28;20073;-66
2022/10/06 00:36:16;;;;;;;21.83;3.22;;;17.90;99.90;;;;;;4976701;28;20129;-66
2022/10/06 00:38:42;;;;;;;11.35;2.45;;;17.90;99.90;;;;;;4995755;28;20034;-66
2022/10/06 00:41:12;;;;;;;14.60;2.60;;;17.90;99.90;;;;;;4995354;28;20042;-66
2022/10/06 00:43:46;;;;;;;15.15;2.97;;;18.00;99.90;;;;;;4995416;28;20081;-66
2022/10/06 00:46:23;;;;;;;19.20;3.10;;;17.90;99.90;;;;;;4976031;28;20268;-66
2022/10/06 00:48:53;;;;;;;16.33;2.60;;;17.90;99.90;;;;;;4994345;28;20034;-66
2022/10/06 00:51:20;;;;;;;17.17;2.70;;;17.90;99.90;;;;;;4991502;28;20050;-66
2022/10/06 00:53:45;;;;;;;10.23;2.78;;;17.90;99.90;;;;;;4975866;28;20043;-66
2022/10/06 00:56:11;;;;;;;14.55;3.08;;;18.00;99.90;;;;;;4969774;28;20026;-66
2022/10/06 00:58:37;;;;;;;19.05;3.05;;;18.10;99.90;;;;;;4995189;28;20046;-66
2022/10/06 01:01:03;;;;;;;10.77;2.47;;;17.90;99.90;;;;;;4995100;28;20045;-66
2022/10/06 01:03:33;;;;;;;22.77;3.08;;;17.90;99.90;;;;;;4995270;28;20045;-66
2022/10/06 01:06:00;;;;;;;19.70;3.78;;;18.00;99.90;;;;;;4974835;28;20050;-66
2022/10/06 01:08:27;;;;;;;18.08;2.88;;;17.90;99.90;;;;;;4977577;28;20042;-66
2022/10/06 01:10:53;;;;;;;16.80;2.80;;;17.90;99.90;;;;;;4993866;28;20054;-66
2022/10/06 01:13:19;;;;;;;12.95;2.40;;;17.90;99.90;;;;;;4993660;28;20049;-66
2022/10/06 01:16:09;;;;;;;18.02;2.83;;;17.80;99.90;;;;;;4993722;28;20097;-66
2022/10/06 01:18:38;;;;;;;17.25;2.85;;;17.70;99.90;;;;;;4994733;28;20483;-66
2022/10/06 01:21:14;;;;;;;19.13;2.97;;;17.80;99.90;;;;;;4994855;28;20042;-66
2022/10/06 01:23:40;;;;;;;16.67;2.72;;;17.60;99.90;;;;;;4994758;28;20049;-66
2022/10/06 01:26:10;;;;;;;20.08;2.72;;;17.60;99.90;;;;;;4992959;28;20081;-66
2022/10/06 01:28:37;;;;;;;15.80;3.20;;;17.60;99.90;;;;;;4988422;28;20049;-66
2022/10/06 01:31:03;;;;;;;11.55;2.42;;;17.60;99.90;;;;;;4990997;28;20121;-66
2022/10/06 01:33:29;;;;;;;19.33;3.00;;;17.60;99.90;;;;;;4994570;28;20465;-66
2022/10/06 01:35:55;;;;;;;17.02;2.60;;;17.60;99.90;;;;;;4993304;28;20105;-66
2022/10/06 01:38:21;;;;;;;17.30;2.83;;;17.60;99.90;;;;;;4976995;28;20045;-66
2022/10/06 01:40:48;;;;;;;17.92;3.75;;;17.70;99.90;;;;;;4992632;28;20088;-66
2022/10/06 01:43:14;;;;;;;17.92;2.55;;;17.60;99.90;;;;;;4994235;28;20042;-66
2022/10/06 01:45:40;;;;;;;16.48;2.55;;;17.60;99.90;;;;;;4992943;28;20050;-66
2022/10/06 01:48:05;;;;;;;17.08;2.80;;;17.60;99.90;;;;;;4960469;28;20050;-66
2022/10/06 01:50:31;;;;;;;23.77;3.25;;;17.60;99.90;;;;;;4993658;28;20034;-66
2022/10/06 01:52:57;;;;;;;12.82;2.60;;;17.60;99.90;;;;;;4992934;28;20042;-66
2022/10/06 01:55:23;;;;;;;18.77;3.20;;;17.60;99.90;;;;;;4992871;28;20129;-66
2022/10/06 01:57:49;;;;;;;15.80;2.85;;;17.70;99.90;;;;;;4976931;28;20042;-66
2022/10/06 02:00:15;;;;;;;16.73;3.40;;;17.60;99.90;;;;;;4993038;28;20038;-66
2022/10/06 02:02:41;;;;;;;14.05;2.40;;;17.60;99.90;;;;;;4993128;28;20068;-66
2022/10/06 02:05:07;;;;;;;16.00;3.25;;;17.60;99.90;;;;;;4993221;28;20416;-66
2022/10/06 02:07:34;;;;;;;13.40;2.92;;;17.50;99.90;;;;;;4993161;28;20058;-66
2022/10/06 02:09:59;;;;;;;14.40;2.53;;;17.50;99.90;;;;;;4963526;28;20047;-66
2022/10/06 02:12:25;;;;;;;18.90;3.28;;;17.60;99.90;;;;;;4977463;28;20123;-66
2022/10/06 02:14:50;;;;;;;17.80;3.42;;;17.50;99.90;;;;;;4976109;28;20082;-66
2022/10/06 02:17:16;;;;;;;11.90;2.35;;;17.50;99.90;;;;;;4975455;28;20043;-66
2022/10/06 02:19:41;;;;;;;14.50;2.13;;;17.50;99.90;;;;;;4993465;28;20414;-65
2022/10/06 02:22:07;;;;;;;10.80;2.13;;;17.50;99.90;;;;;;4991530;28;20543;-66
2022/10/06 02:24:33;;;;;;;12.93;2.67;;;17.50;99.90;;;;;;4993516;28;20042;-66
2022/10/06 02:26:59;;;;;;;16.98;2.88;;;17.60;99.90;;;;;;4988379;28;20093;-66
2022/10/06 02:29:24;;;;;;;14.07;2.88;;;17.60;99.90;;;;;;4975668;28;20551;-65
2022/10/06 02:31:51;;;;;;;18.90;4.15;;;17.60;99.90;;;;;;4992992;28;20117;-66
2022/10/06 02:34:16;;;;;;;15.70;2.65;;;17.60;99.90;;;;;;4993219;28;20034;-66
2022/10/06 02:36:42;;;;;;;21.10;3.22;;;17.50;99.90;;;;;;4991238;28;20089;-66
2022/10/06 02:39:07;;;;;;;15.75;2.95;;;17.50;99.90;;;;;;4991911;28;20038;-66
2022/10/06 02:41:33;;;;;;;17.00;2.88;;;17.50;99.90;;;;;;4992464;28;20451;-66
2022/10/06 02:43:58;;;;;;;14.75;3.00;;;17.50;99.90;;;;;;4993401;28;20427;-65
2022/10/06 02:46:24;;;;;;;16.17;2.97;;;17.40;99.90;;;;;;4992154;28;20081;-66
2022/10/06 02:48:52;;;;;;;12.93;2.63;;;17.40;99.90;;;;;;4993244;28;20045;-66
2022/10/06 02:51:20;;;;;;;19.70;3.20;;;17.40;99.90;;;;;;4991673;28;20162;-66
2022/10/06 02:53:47;;;;;;;20.27;3.65;;;17.40;99.90;;;;;;4975661;28;20080;-66
2022/10/06 02:56:15;;;;;;;15.85;3.00;;;17.40;99.90;;;;;;4991903;28;20117;-65
2022/10/06 02:58:42;;;;;;;18.63;2.75;;;17.30;99.90;;;;;;4975951;28;20050;-65
2022/10/06 03:01:10;;;;;;;17.00;2.70;;;17.30;99.90;;;;;;4991690;28;20570;-65
2022/10/06 03:03:36;;;;;;;17.27;3.22;;;17.50;99.90;;;;;;4992938;28;20042;-65
2022/10/06 03:06:20;;;;;;;18.08;2.88;;;17.20;99.90;;;;;;4972563;28;20053;-65
2022/10/06 03:08:49;;;;;;;14.18;2.30;;;17.20;99.90;;;;;;4975222;28;20118;-66
2022/10/06 03:11:15;;;;;;;11.80;2.55;;;17.10;99.90;;;;;;4991476;28;20511;-66
2022/10/06 03:13:41;;;;;;;19.63;2.90;;;17.10;99.90;;;;;;4975252;28;20087;-66
2022/10/06 03:16:24;;;;;;;13.02;2.38;;;17.10;99.90;;;;;;4991003;28;20388;-65
2022/10/06 03:18:51;;;;;;;17.88;3.22;;;17.10;99.90;;;;;;4992730;28;20125;-66
2022/10/06 03:21:23;;;;;;;19.75;3.20;;;17.10;99.90;;;;;;4990388;28;20034;-66
2022/10/06 03:23:50;;;;;;;18.33;2.42;;;17.10;99.90;;;;;;4974847;28;20070;-66
2022/10/06 03:26:19;;;;;;;20.38;3.13;;;17.10;99.90;;;;;;4982100;28;20116;-65
2022/10/06 03:28:45;;;;;;;13.60;2.80;;;17.10;99.90;;;;;;4990608;28;20096;-65
2022/10/06 03:31:11;;;;;;;24.10;3.17;;;17.10;99.90;;;;;;4990602;28;20042;-65
2022/10/06 03:33:36;;;;;;;14.63;2.83;;;17.00;99.90;;;;;;4992910;28;20065;-65
2022/10/06 03:36:05;;;;;;;22.50;2.90;;;17.10;99.90;;;;;;4973902;28;20046;-65
2022/10/06 03:38:32;;;;;;;22.40;3.30;;;17.10;99.90;;;;;;4992595;28;20526;-66
2022/10/06 03:41:06;;;;;;;16.15;2.90;;;17.20;99.90;;;;;;4992297;28;20038;-66
2022/10/06 03:43:32;;;;;;;12.82;2.95;;;17.10;99.90;;;;;;4992096;28;20519;-65
2022/10/06 03:45:59;;;;;;;17.65;3.38;;;17.20;99.90;;;;;;4991010;28;20128;-66
2022/10/06 03:48:26;;;;;;;16.25;2.88;;;17.10;99.90;;;;;;4975192;28;20547;-66
2022/10/06 03:51:00;;;;;;;20.98;3.45;;;17.20;99.90;;;;;;4991708;28;20125;-65
2022/10/06 03:53:28;;;;;;;13.75;2.80;;;17.20;99.90;;;;;;4992138;28;20088;-66
2022/10/06 03:56:04;;;;;;;20.77;3.35;;;17.20;99.90;;;;;;4991133;28;20496;-65
2022/10/06 03:58:31;;;;;;;20.70;3.30;;;17.20;99.90;;;;;;4992254;28;20050;-65
2022/10/06 04:01:07;;;;;;;15.40;3.00;;;17.20;99.90;;;;;;4991294;28;20034;-65
2022/10/06 04:03:33;;;;;;;20.63;3.22;;;17.70;99.90;;;;;;4992325;28;20077;-65
2022/10/06 04:06:03;;;;;;;22.38;3.80;;;17.20;99.90;;;;;;4991208;28;20065;-65
2022/10/06 04:08:29;;;;;;;19.90;3.15;;;17.30;99.90;;;;;;4992156;28;20053;-66
2022/10/06 04:11:03;;;;;;;20.10;3.17;;;17.30;99.90;;;;;;4991865;28;20125;-65
2022/10/06 04:13:28;;;;;;;21.00;3.35;;;17.30;99.90;;;;;;4991977;28;20044;-65
2022/10/06 04:15:54;;;;;;;27.67;3.58;;;17.30;99.90;;;;;;4973913;28;20466;-66
2022/10/06 04:18:19;;;;;;;19.15;3.35;;;17.30;99.90;;;;;;4992151;28;20407;-65
2022/10/06 04:20:45;;;;;;;18.13;3.58;;;17.20;99.90;;;;;;4974370;28;20050;-65
2022/10/06 04:23:11;;;;;;;25.70;3.78;;;17.30;99.90;;;;;;4990009;28;20038;-65
2022/10/06 04:25:36;;;;;;;18.98;3.55;;;17.20;99.90;;;;;;4978547;28;20556;-65
2022/10/06 04:28:02;;;;;;;25.98;3.45;;;17.10;99.90;;;;;;4955550;28;20126;-65
2022/10/06 04:30:28;;;;;;;23.10;3.83;;;17.20;99.90;;;;;;4974510;28;20074;-65
2022/10/06 04:32:54;;;;;;;20.90;2.88;;;17.20;99.90;;;;;;4991064;28;20142;-65
2022/10/06 04:35:19;;;;;;;20.00;3.22;;;17.10;99.90;;;;;;4989601;28;20046;-65
2022/10/06 04:37:45;;;;;;;19.75;3.75;;;17.10;99.90;;;;;;4990951;28;20496;-65
2022/10/06 04:40:11;;;;;;;14.40;2.47;;;17.10;99.90;;;;;;4994244;28;20046;-65
2022/10/06 04:42:37;;;;;;;21.08;3.15;;;17.60;99.90;;;;;;4995723;28;20539;-65
2022/10/06 04:45:03;;;;;;;17.38;3.20;;;17.20;99.90;;;;;;4993740;28;20045;-65
2022/10/06 04:47:29;;;;;;;12.93;2.70;;;17.20;99.90;;;;;;4995572;28;20544;-65
2022/10/06 04:49:54;;;;;;;16.92;2.92;;;17.20;99.90;;;;;;4978071;28;20129;-65
2022/10/06 04:52:21;;;;;;;22.27;3.40;;;17.30;99.90;;;;;;4993709;28;20416;-65
2022/10/06 04:54:47;;;;;;;17.67;3.20;;;17.30;99.90;;;;;;4994083;28;20073;-65
2022/10/06 04:57:13;;;;;;;20.67;2.85;;;17.20;99.90;;;;;;4975818;28;20050;-65
2022/10/06 05:02:22;;;;;;;14.25;2.38;;;17.30;99.90;;;;;;4995330;28;20038;-65
2022/10/06 05:04:48;;;;;;;12.15;2.50;;;17.30;99.90;;;;;;4993471;28;20054;-65
2022/10/06 05:07:13;;;;;;;22.95;3.45;;;17.30;99.90;;;;;;4995087;28;20038;-65
2022/10/06 05:09:39;;;;;;;13.00;3.00;;;17.30;99.90;;;;;;4976553;28;20177;-65
2022/10/06 05:12:05;;;;;;;16.02;2.95;;;17.20;99.90;;;;;;4994589;28;20042;-65
2022/10/06 05:14:32;;;;;;;15.80;2.88;;;17.10;99.90;;;;;;4976372;28;20097;-65
2022/10/06 05:16:58;;;;;;;18.83;2.72;;;17.10;99.90;;;;;;4993857;28;20586;-65
2022/10/06 05:19:23;;;;;;;15.98;3.78;;;17.00;99.90;;;;;;4993743;28;20082;-65
2022/10/06 05:21:49;;;;;;;19.00;2.75;;;17.00;99.90;;;;;;4976489;28;20041;-65
2022/10/06 05:24:14;;;;;;;20.88;3.83;;;17.00;99.90;;;;;;4994087;28;20045;-65
2022/10/06 05:26:40;;;;;;;15.52;2.40;;;16.90;99.90;;;;;;4990809;28;20415;-65
2022/10/06 05:29:05;;;;;;;19.45;3.10;;;16.90;99.90;;;;;;4994892;28;20511;-65
2022/10/06 05:31:33;;;;;;;18.00;3.58;;;16.90;99.90;;;;;;4991751;28;20038;-65
2022/10/06 05:33:59;;;;;;;22.20;3.47;;;16.90;99.90;;;;;;4993225;28;20057;-65
2022/10/06 05:36:28;;;;;;;21.25;2.92;;;17.00;99.90;;;;;;4994488;28;20554;-65
2022/10/06 05:38:55;;;;;;;19.67;3.10;;;16.90;99.90;;;;;;4944709;28;20039;-65
2022/10/06 05:41:29;;;;;;;23.48;3.28;;;17.00;99.90;;;;;;4992418;28;20038;-65
2022/10/06 05:43:55;;;;;;;20.70;3.53;;;17.00;99.90;;;;;;4994292;28;20042;-65
2022/10/06 05:46:24;;;;;;;19.35;3.08;;;17.00;99.90;;;;;;4994238;28;20038;-65
2022/10/06 05:48:54;;;;;;;17.88;3.33;;;16.90;99.90;;;;;;4994404;28;20166;-65
2022/10/06 05:51:21;;;;;;;14.02;3.10;;;16.90;99.90;;;;;;4974138;28;20045;-65
2022/10/06 05:53:50;;;;;;;16.30;4.00;;;16.90;99.90;;;;;;4992863;28;20038;-65
2022/10/06 05:56:25;;;;;;;14.38;2.72;;;16.90;99.90;;;;;;4955608;28;20039;-65
2022/10/06 05:58:53;;;;;;;21.33;3.28;;;16.90;99.90;;;;;;4985358;28;20555;-65
2022/10/06 06:01:25;;;;;;;17.50;3.15;;;16.90;99.90;;;;;;4968109;28;20063;-65
2022/10/06 06:03:58;;;;;;;18.30;3.30;;;16.90;99.90;;;;;;4984348;28;20414;-65
2022/10/06 06:06:29;;;;;;;14.18;3.03;;;17.00;99.90;;;;;;4987309;28;20050;-65
2022/10/06 06:08:57;;;;;;;17.58;2.88;;;16.90;99.90;;;;;;4967322;28;20073;-65
2022/10/06 06:11:26;;;;;;;9.70;2.30;;;17.00;99.90;;;;;;4984756;28;20085;-65
2022/10/06 06:13:57;;;;;;;15.10;2.72;;;16.90;99.90;;;;;;4982492;28;20045;-65
2022/10/06 06:16:23;;;;;;;16.08;2.55;;;17.00;99.90;;;;;;4991570;28;20057;-65
2022/10/06 06:18:49;;;;;;;29.95;4.00;;;17.00;99.90;;;;;;4988453;28;20041;-65
2022/10/06 06:21:14;;;;;;;21.92;2.60;;;17.20;99.90;;;;;;4984232;28;20026;-70
2022/10/06 06:23:44;;;;;;;17.10;3.22;;;17.10;99.90;;;;;;4969308;28;20149;-65
2022/10/06 06:26:16;;;;;;;19.05;3.08;;;17.20;99.90;;;;;;4983344;28;20403;-65
2022/10/06 06:28:45;;;;;;;18.00;3.08;;;17.10;99.90;;;;;;4967401;28;20050;-65
2022/10/06 06:31:21;;;;;;;25.52;3.95;;;17.10;99.90;;;;;;4973373;28;20125;-65
2022/10/06 06:33:51;;;;;;;17.33;2.85;;;17.00;99.90;;;;;;4990654;28;20093;-64
2022/10/06 06:36:23;;;;;;;25.10;3.72;;;17.00;99.90;;;;;;4983124;28;20116;-64
2022/10/06 06:38:51;;;;;;;17.23;3.05;;;17.00;99.90;;;;;;4954994;28;20038;-65
2022/10/06 06:41:22;;;;;;;24.42;3.55;;;17.00;99.90;;;;;;4986051;28;20042;-65
2022/10/06 06:43:48;;;;;;;18.67;3.72;;;17.00;99.90;;;;;;4992973;28;20129;-65
2022/10/06 06:46:16;;;;;;;25.63;2.95;;;17.00;99.90;;;;;;4988228;28;20042;-65
2022/10/06 06:48:42;;;;;;;19.90;3.30;;;17.00;99.90;;;;;;4983605;28;20049;-64
2022/10/06 06:51:10;;;;;;;29.30;3.63;;;17.10;99.90;;;;;;4989712;28;20038;-64
2022/10/06 06:53:37;;;;;;;16.73;3.15;;;17.20;99.90;;;;;;4985710;28;20550;-65
2022/10/06 06:56:03;;;;;;;23.67;3.15;;;17.20;99.90;;;;;;4991286;28;20073;-64
2022/10/06 06:58:29;;;;;;;23.17;3.58;;;17.20;99.90;;;;;;4972312;28;20130;-64
2022/10/06 07:01:13;;;;;;;14.27;3.28;;;17.20;99.90;;;;;;4988963;28;20571;-64
2022/10/06 07:03:40;;;;;;;20.98;3.53;;;17.20;99.90;;;;;;4987134;28;20046;-64
2022/10/06 07:06:08;;;;;;;26.27;3.30;;;17.30;99.90;;;;;;4987989;28;20058;-64
2022/10/06 07:08:38;;;;;;;21.60;3.00;;;17.30;99.90;;;;;;4986889;28;20113;-64
2022/10/06 07:11:11;;;;;;;19.25;3.47;;;17.30;99.90;;;;;;4988825;28;20545;-64
2022/10/06 07:13:37;;;;;;;17.35;2.75;;;17.40;99.90;;;;;;4983243;28;20493;-64
2022/10/06 07:27:27;;;;;;;18.35;3.20;;;17.40;99.90;;;;;;4989195;28;20137;-64
2022/10/06 07:29:53;;;;;;;22.65;2.95;;;17.50;99.90;;;;;;4990491;28;20133;-64
2022/10/06 07:32:24;;;;;;;25.17;3.92;;;17.50;99.90;;;;;;4987916;28;20038;-64
2022/10/06 07:34:49;;;;;;;14.70;2.70;;;17.50;99.90;;;;;;4985998;28;20608;-64
2022/10/06 07:37:16;;;;;;;13.63;2.88;;;17.60;99.90;;;;;;4990613;28;20046;-64
2022/10/06 07:39:43;;;;;;;17.60;3.20;;;17.60;99.90;;;;;;4969652;28;20042;-64
2022/10/06 07:42:13;;;;;;;17.98;2.42;;;17.60;99.90;;;;;;4990711;28;20802;-64
2022/10/06 07:44:40;;;;;;;17.23;2.85;;;17.70;99.90;;;;;;4971619;28;20073;-64
2022/10/06 07:47:06;;;;;;;13.73;2.63;;;17.70;99.90;;;;;;4988316;28;20069;-64
2022/10/06 07:49:32;;;;;;;18.52;3.03;;;17.70;99.90;;;;;;4985446;28;20515;-64
2022/10/06 07:51:57;;;;;;;18.08;2.95;;;17.70;99.90;;;;;;4985960;28;20038;-64
2022/10/06 07:54:24;;;;;;;17.63;3.47;;;17.80;99.90;;;;;;4984931;28;20049;-64
2022/10/06 07:56:50;;;;;;;16.98;3.00;;;18.10;99.90;;;;;;4987667;28;20161;-64
2022/10/06 07:59:16;;;;;;;18.52;2.33;;;17.80;99.90;;;;;;4989909;28;20031;-64
2022/10/06 08:01:44;;;;;;;12.00;2.70;;;17.90;99.90;;;;;;4987840;28;20061;-65
2022/10/06 08:04:11;;;;;;;24.02;3.05;;;18.00;99.90;;;;;;4986761;28;20038;-65
2022/10/06 08:06:37;;;;;;;14.02;2.50;;;18.10;99.90;;;;;;4990944;28;20520;-65
2022/10/06 08:09:04;;;;;;;24.85;3.38;;;18.30;99.90;;;;;;4989711;28;20053;-64
2022/10/06 08:11:30;;;;;;;16.90;3.28;;;18.40;99.90;;;;;;4987648;28;20176;-65
2022/10/06 08:13:56;;;;;;;16.90;2.90;;;18.40;99.90;;;;;;4971989;28;20058;-65
2022/10/06 08:16:23;;;;;;;12.18;3.17;;;18.40;99.90;;;;;;4987591;28;20041;-65
2022/10/06 08:18:53;;;;;;;12.95;3.53;;;18.40;99.90;;;;;;4992564;28;20050;-65
2022/10/06 08:21:23;;;;;;;15.68;2.60;;;18.50;99.90;;;;;;4981432;28;20088;-65
2022/10/06 08:23:50;;;;;;;15.50;3.22;;;18.70;99.90;;;;;;4994765;28;20042;-65
2022/10/06 08:26:17;;;;;;;12.88;2.53;;;19.10;99.90;;;;;;4991164;28;20038;-65
2022/10/06 08:28:46;;;;;;;18.63;3.03;;;19.40;99.90;;;;;;4990075;28;20039;-65
2022/10/06 08:31:14;;;;;;;12.60;2.70;;;19.60;99.90;;;;;;4985385;28;20126;-65
2022/10/06 08:33:41;;;;;;;15.27;3.00;;;19.80;99.90;;;;;;4976889;28;20061;-65
2022/10/06 08:36:09;;;;;;;16.58;3.65;;;20.10;99.90;;;;;;4987417;28;20058;-65
2022/10/06 08:38:36;;;;;;;11.63;2.47;;;20.40;99.90;;;;;;4992404;28;20164;-65
2022/10/06 08:41:22;;;;;;;16.67;2.95;;;20.50;99.90;;;;;;4993258;28;20038;-65
2022/10/06 08:44:17;;;;;;;17.33;3.10;;;20.70;99.90;;;;;;4976157;28;20393;-65
2022/10/06 08:47:12;;;;;;;15.10;3.03;;;20.80;99.90;;;;;;4977180;28;20054;-65
2022/10/06 08:49:43;;;;;;;16.25;2.60;;;20.90;99.90;;;;;;4993173;28;20046;-65
2022/10/06 08:52:33;;;;;;;20.77;3.40;;;20.90;99.90;;;;;;4993803;28;20037;-65
2022/10/06 08:55:21;;;;;;;11.95;2.42;;;20.90;96.80;;;;;;4985881;28;20038;-65
2022/10/06 08:58:20;;;;;;;13.07;2.60;;;20.90;1.00;;;;;;4993371;28;20126;-65
2022/10/06 09:00:46;;;;;;;17.08;2.90;;;20.80;40.60;;;;;;4990603;28;20042;-65
2022/10/06 09:03:27;;;;;;;14.38;2.75;;;20.80;99.90;;;;;;4976057;28;20038;-65
2022/10/06 09:06:00;;;;;;;18.35;3.38;;;20.60;99.90;;;;;;4994912;28;20054;-65
2022/10/06 09:08:51;;;;;;;15.48;3.03;;;20.50;1.00;;;;;;4992924;28;20084;-65
2022/10/06 09:11:59;;;;;;;13.95;3.05;;;20.30;99.90;;;;;;4990951;28;20133;-65
2022/10/06 09:14:41;;;;;;;17.92;3.00;;;20.20;1.00;;;;;;4987881;28;20042;-65
2022/10/06 09:17:17;;;;;;;13.63;2.88;;;19.90;99.90;;;;;;4975908;28;20042;-65
2022/10/06 09:19:49;;;;;;;15.88;2.95;;;19.80;1.00;;;;;;4963645;28;20506;-65
2022/10/06 09:22:20;;;;;;;13.27;2.63;;;19.70;99.90;;;;;;4993743;28;20042;-65
2022/10/06 09:24:52;;;;;;;16.33;3.50;;;19.70;1.00;;;;;;4991650;28;20043;-65
2022/10/06 09:27:29;;;;;;;18.95;2.80;;;19.70;1.00;;;;;;4980544;28;20030;-65
2022/10/06 09:29:55;;;;;;;18.10;2.88;;;19.70;92.00;;;;;;4974046;28;20506;-65
2022/10/06 09:32:23;;;;;;;13.48;2.78;;;19.90;99.90;;;;;;4991178;28;20045;-65
2022/10/06 09:34:51;;;;;;;14.43;2.58;;;19.90;99.90;;;;;;4992934;28;20045;-65
2022/10/06 09:37:18;;;;;;;13.43;2.58;;;19.90;99.90;;;;;;4975969;28;20045;-65
2022/10/06 09:39:48;;;;;;;16.25;2.70;;;19.90;99.90;;;;;;4987065;28;20030;-65
2022/10/06 09:42:19;;;;;;;15.65;2.83;;;20.00;82.50;;;;;;4992027;28;20038;-65
2022/10/06 09:44:54;;;;;;;16.75;2.50;;;20.00;1.00;;;;;;4970366;28;20042;-65
2022/10/06 09:47:33;;;;;;;18.25;2.72;;;20.00;1.00;;;;;;4982218;28;20042;-65
2022/10/06 09:50:11;;;;;;;13.85;2.83;;;20.00;99.90;;;;;;4980523;28;20527;-65
2022/10/06 09:52:37;;;;;;;17.10;2.85;;;20.10;99.90;;;;;;4991376;28;20050;-65
2022/10/06 09:55:12;;;;;;;16.63;2.88;;;20.00;99.90;;;;;;4973816;28;20039;-65
2022/10/06 09:57:45;;;;;;;15.25;2.50;;;20.00;71.70;;;;;;4988910;28;20120;-64
2022/10/06 10:00:41;;;;;;;10.60;2.35;;;20.00;1.00;;;;;;4972440;28;20089;-65
2022/10/06 10:03:10;;;;;;;12.98;2.53;;;20.00;18.30;;;;;;4983640;28;20504;-65
2022/10/06 10:05:39;;;;;;;13.50;2.30;;;20.10;99.90;;;;;;4972793;28;20055;-65
2022/10/06 10:08:17;;;;;;;14.65;2.67;;;20.10;1.00;;;;;;4992485;28;20069;-65
2022/10/06 10:10:43;;;;;;;16.75;2.78;;;20.30;1.00;;;;;;4987144;28;20049;-65
2022/10/06 10:13:24;;;;;;;7.90;2.22;;;20.10;99.90;;;;;;4963972;28;20039;-65
2022/10/06 10:15:57;;;;;;;15.27;2.92;;;20.10;21.80;;;;;;4989048;28;20100;-65
2022/10/06 10:18:25;;;;;;;13.18;2.17;;;20.10;1.00;;;;;;4989559;28;20130;-65
2022/10/06 10:21:03;;;;;;;11.02;2.53;;;20.10;1.00;;;;;;4989365;28;20038;-65
2022/10/06 10:23:32;;;;;;;10.18;2.20;;;20.10;99.90;;;;;;4991481;28;20035;-64
2022/10/06 10:26:10;;;;;;;12.35;2.60;;;20.10;99.90;;;;;;4966008;28;20420;-66
2022/10/06 10:28:45;;;;;;;14.52;2.20;;;20.10;99.90;;;;;;4991683;28;20522;-66
2022/10/06 10:31:20;;;;;;;10.20;2.13;;;20.20;99.90;;;;;;4987042;28;20492;-66
2022/10/06 10:34:14;;;;;;;13.60;2.60;;;20.20;99.90;;;;;;4988770;28;21496;-66
2022/10/06 10:36:49;;;;;;;11.73;2.10;;;20.20;33.80;;;;;;4987076;28;20047;-66
2022/10/06 10:39:28;;;;;;;14.23;2.63;;;20.20;12.00;;;;;;4987437;28;20403;-66
2022/10/06 10:41:55;;;;;;;13.80;2.65;;;20.30;1.00;;;;;;4990406;28;20392;-66
2022/10/06 10:44:30;;;;;;;16.65;2.78;;;20.20;1.00;;;;;;4989624;28;20049;-66
2022/10/06 10:47:17;;;;;;;13.03;2.70;;;20.30;1.00;;;;;;4982597;28;20034;-66
2022/10/06 10:49:52;;;;;;;13.85;2.42;;;20.30;1.00;;;;;;4984948;28;20042;-66
2022/10/06 10:52:26;;;;;;;17.52;2.75;;;20.30;1.00;;;;;;4987321;28;20133;-66
2022/10/06 10:55:16;;;;;;;12.48;2.78;;;20.40;1.00;;;;;;4977765;28;20125;-66
2022/10/06 10:57:44;;;;;;;14.27;2.83;;;20.40;1.00;;;;;;4982904;28;20407;-66
2022/10/06 11:00:24;;;;;;;11.05;2.70;;;20.60;1.00;;;;;;4988983;28;20057;-66
2022/10/06 11:02:56;;;;;;;16.85;2.30;;;20.60;1.00;;;;;;4969334;28;20129;-66
2022/10/06 11:05:48;;;;;;;8.52;2.08;;;20.50;99.90;;;;;;4984986;28;20053;-66
2022/10/06 11:08:44;;;;;;;11.93;2.33;;;20.30;99.90;;;;;;4981019;28;20419;-64
2022/10/06 11:11:36;;;;;;;19.13;3.63;;;20.30;99.90;;;;;;4975909;28;21827;-64
2022/10/06 11:14:13;;;;;;;16.27;2.78;;;20.10;99.90;;;;;;4987027;28;20053;-64
2022/10/06 11:17:01;;;;;;;11.18;2.05;;;20.20;99.90;;;;;;4955859;28;20076;-64
2022/10/06 11:19:44;;;;;;;9.90;2.58;;;20.20;12.60;;;;;;4986048;28;20034;-64
2022/10/06 11:22:41;;;;;;;14.02;2.70;;;20.20;67.10;;;;;;4988848;28;20058;-64
2022/10/06 11:25:40;;;;;;;14.63;2.95;;;20.10;24.40;;;;;;4972001;28;20098;-64
2022/10/06 11:28:31;;;;;;;21.20;3.03;;;20.00;84.00;;;;;;4986397;28;20169;-64
2022/10/06 11:31:05;;;;;;;15.23;2.78;;;20.00;99.90;;;;;;4971193;28;20503;-64
2022/10/06 11:33:38;;;;;;;11.60;2.58;;;20.10;1.00;;;;;;4974001;28;20133;-63
2022/10/06 11:36:12;;;;;;;12.55;2.67;;;20.20;1.00;;;;;;4987248;28;20038;-64
2022/10/06 11:38:47;;;;;;;11.93;2.28;;;20.20;87.70;;;;;;4987128;28;20049;-64
2022/10/06 11:41:33;;;;;;;11.07;2.20;;;20.20;1.00;;;;;;4982248;28;20543;-64
2022/10/06 11:44:21;;;;;;;16.35;2.85;;;20.10;99.90;;;;;;4988321;28;20030;-64
2022/10/06 11:46:57;;;;;;;14.60;2.83;;;20.00;99.90;;;;;;4992212;28;20729;-64
2022/10/06 11:49:28;;;;;;;17.98;2.70;;;19.90;99.90;;;;;;4988188;28;20042;-64
2022/10/06 11:52:06;;;;;;;13.32;2.83;;;19.90;99.90;;;;;;4989069;28;20050;-64
2022/10/06 11:54:47;;;;;;;11.82;3.10;;;19.90;99.90;;;;;;4986669;28;20092;-64
2022/10/06 11:57:21;;;;;;;16.88;2.60;;;19.70;99.90;;;;;;4991962;28;20042;-64
2022/10/06 12:00:16;;;;;;;15.50;2.28;;;19.90;99.90;;;;;;4991160;28;20042;-64
2022/10/06 12:02:44;;;;;;;13.88;2.72;;;19.80;99.90;;;;;;4954242;28;20046;-64
2022/10/06 12:05:13;;;;;;;13.75;2.40;;;19.80;99.90;;;;;;4986543;28;20055;-64
2022/10/06 12:07:51;;;;;;;14.57;2.53;;;19.80;99.90;;;;;;4989246;28;20445;-64
2022/10/06 12:10:28;;;;;;;19.50;2.85;;;19.80;99.90;;;;;;4986650;28;20049;-64
2022/10/06 12:13:24;;;;;;;18.23;2.60;;;19.80;1.00;;;;;;4989248;28;20042;-64
2022/10/06 12:15:59;;;;;;;12.07;2.67;;;19.90;1.00;;;;;;4973069;28;20057;-64
2022/10/06 12:18:40;;;;;;;17.02;3.08;;;19.90;1.00;;;;;;4986217;28;20053;-65
2022/10/06 12:21:25;;;;;;;12.80;3.03;;;19.90;36.50;;;;;;4988235;28;20038;-64
2022/10/06 12:24:15;;;;;;;15.90;2.67;;;19.80;1.00;;;;;;4971951;28;20046;-64
2022/10/06 12:26:48;;;;;;;19.05;2.80;;;19.80;1.00;;;;;;4971808;28;20499;-64
2022/10/06 12:29:25;;;;;;;10.43;2.60;;;19.90;35.30;;;;;;4989530;28;20038;-63
2022/10/06 12:32:06;;;;;;;8.25;2.38;;;19.90;1.00;;;;;;4950882;28;20070;-64
2022/10/06 12:34:38;;;;;;;13.75;3.15;;;19.80;99.90;;;;;;4970326;28;20404;-64
2022/10/06 12:37:33;;;;;;;15.55;3.28;;;19.80;1.00;;;;;;4983111;28;20031;-64
2022/10/06 12:40:36;;;;;;;13.40;2.45;;;19.80;1.00;;;;;;4982687;28;20050;-64
2022/10/06 12:43:11;;;;;;;19.88;3.13;;;19.70;1.00;;;;;;4985277;28;20038;-64
2022/10/06 12:45:47;;;;;;;19.30;3.05;;;19.80;1.00;;;;;;4983034;28;20055;-64
2022/10/06 12:48:27;;;;;;;12.20;2.60;;;19.70;1.00;;;;;;4979588;28;20035;-64
2022/10/06 12:51:01;;;;;;;17.15;3.08;;;19.70;1.00;;;;;;4981623;28;20046;-64
2022/10/06 12:53:31;;;;;;;12.43;2.65;;;19.80;99.90;;;;;;4987536;28;20038;-64
2022/10/06 12:56:01;;;;;;;20.23;3.42;;;19.70;99.90;;;;;;4987183;28;20046;-64
2022/10/06 12:58:28;;;;;;;11.70;2.90;;;19.70;1.00;;;;;;4970444;28;20046;-64
2022/10/06 13:00:59;;;;;;;15.52;2.97;;;19.60;20.00;;;;;;4990744;28;20431;-64
2022/10/06 13:03:25;;;;;;;18.75;2.83;;;19.60;1.00;;;;;;4994408;28;20050;-64
2022/10/06 13:05:54;;;;;;;21.13;3.63;;;19.50;1.00;;;;;;4976879;28;20069;-64
2022/10/06 13:08:22;;;;;;;20.70;2.67;;;19.50;1.00;;;;;;4994122;28;20062;-64
2022/10/06 13:10:47;;;;;;;14.57;2.70;;;19.50;1.00;;;;;;4972547;28;20050;-64
2022/10/06 13:13:23;;;;;;;15.05;2.83;;;19.40;1.00;;;;;;4994080;28;20099;-64